N1SC KTLH-KORL
Flight info
| Callsign | N1SC |
|---|---|
| Flight time | 1h 3m |
| Altitude | 7000 |
| Route | OLUGY T349 CCITY OCF LEESE3 |
| Aircraft | AEST/L-VGD/C |
Departure
| Time | 2026-05-04 23:49 |
|---|---|
| Airport | Tallahassee International Airport (KTLH) |
Arrival
| Time | 2026-05-05 00:52 |
|---|---|
| Airport | Orlando Executive Airport (KORL) |
| Time | Latitude | Longitude | Altitude | Speed | Heading |
|---|---|---|---|---|---|
| 2026-05-04 23:29 | 30.40055 | -84.35600 | 67 ft | 0 kts | 1° |
| 2026-05-04 23:44 | 30.40064 | -84.35599 | 65 ft | 9 kts | 7° |
| 2026-05-04 23:44 | 30.40149 | -84.35631 | 64 ft | 15 kts | 354° |
| 2026-05-04 23:44 | 30.40177 | -84.35634 | 62 ft | 0 kts | 354° |
| 2026-05-04 23:44 | 30.40244 | -84.35632 | 65 ft | 7 kts | 349° |
| 2026-05-04 23:45 | 30.40291 | -84.35693 | 63 ft | 19 kts | 300° |
| 2026-05-04 23:45 | 30.40394 | -84.35762 | 62 ft | 18 kts | 358° |
| 2026-05-04 23:45 | 30.40542 | -84.35763 | 62 ft | 25 kts | 358° |
| 2026-05-04 23:45 | 30.40726 | -84.35768 | 66 ft | 28 kts | 1° |
| 2026-05-04 23:46 | 30.40939 | -84.35766 | 64 ft | 33 kts | 359° |
| 2026-05-04 23:46 | 30.41122 | -84.35768 | 63 ft | 17 kts | 1° |
| 2026-05-04 23:46 | 30.41239 | -84.35764 | 63 ft | 14 kts | 350° |
| 2026-05-04 23:46 | 30.41240 | -84.35807 | 62 ft | 0 kts | 261° |
| 2026-05-04 23:47 | 30.41238 | -84.35824 | 61 ft | 11 kts | 264° |
| 2026-05-04 23:48 | 30.41232 | -84.35897 | 60 ft | 7 kts | 207° |
| 2026-05-04 23:48 | 30.41210 | -84.35897 | 60 ft | 5 kts | 178° |
| 2026-05-04 23:48 | 30.40850 | -84.35895 | 60 ft | 89 kts | 180° |
| 2026-05-04 23:48 | 30.40146 | -84.35883 | 198 ft | 106 kts | 180° |
| 2026-05-04 23:49 | 30.39425 | -84.35886 | 523 ft | 102 kts | 179° |
| 2026-05-04 23:49 | 30.38704 | -84.35892 | 1072 ft | 98 kts | 180° |
| 2026-05-04 23:49 | 30.38031 | -84.35853 | 1609 ft | 103 kts | 180° |
| 2026-05-04 23:49 | 30.37348 | -84.35528 | 1989 ft | 117 kts | 130° |
| 2026-05-04 23:50 | 30.37181 | -84.34620 | 2561 ft | 112 kts | 87° |
| 2026-05-04 23:50 | 30.37313 | -84.33741 | 3058 ft | 124 kts | 85° |
| 2026-05-04 23:50 | 30.37461 | -84.32721 | 3479 ft | 122 kts | 81° |
| 2026-05-04 23:50 | 30.37616 | -84.31766 | 3867 ft | 128 kts | 85° |
| 2026-05-04 23:51 | 30.37702 | -84.30702 | 4177 ft | 134 kts | 87° |
| 2026-05-04 23:51 | 30.37753 | -84.29610 | 4498 ft | 140 kts | 90° |
| 2026-05-04 23:51 | 30.37761 | -84.28436 | 4705 ft | 150 kts | 90° |
| 2026-05-04 23:51 | 30.37789 | -84.27235 | 5032 ft | 148 kts | 89° |
| 2026-05-04 23:52 | 30.37799 | -84.26025 | 5249 ft | 155 kts | 91° |
| 2026-05-04 23:52 | 30.37820 | -84.24745 | 5457 ft | 159 kts | 86° |
| 2026-05-04 23:52 | 30.37909 | -84.23502 | 5848 ft | 151 kts | 86° |
| 2026-05-04 23:52 | 30.38021 | -84.22275 | 6010 ft | 161 kts | 88° |
| 2026-05-04 23:53 | 30.38301 | -84.20993 | 6068 ft | 170 kts | 68° |
| 2026-05-04 23:53 | 30.38677 | -84.19666 | 6174 ft | 176 kts | 79° |
| 2026-05-04 23:53 | 30.38885 | -84.18250 | 6284 ft | 180 kts | 81° |
| 2026-05-04 23:53 | 30.39065 | -84.16805 | 6399 ft | 182 kts | 83° |
| 2026-05-04 23:54 | 30.39205 | -84.15347 | 6519 ft | 182 kts | 89° |
| 2026-05-04 23:54 | 30.39016 | -84.13898 | 6631 ft | 184 kts | 109° |
| 2026-05-04 23:54 | 30.38412 | -84.12594 | 6739 ft | 184 kts | 128° |
| 2026-05-04 23:54 | 30.37477 | -84.11589 | 6857 ft | 184 kts | 143° |
| 2026-05-04 23:55 | 30.36486 | -84.10649 | 6972 ft | 184 kts | 138° |
| 2026-05-04 23:55 | 30.35588 | -84.09580 | 7028 ft | 188 kts | 132° |
| 2026-05-04 23:55 | 30.33861 | -84.07119 | 6969 ft | 209 kts | 128° |
| 2026-05-04 23:56 | 30.32959 | -84.05771 | 6983 ft | 215 kts | 128° |
| 2026-05-04 23:56 | 30.32032 | -84.04397 | 6981 ft | 219 kts | 128° |
| 2026-05-04 23:56 | 30.31079 | -84.03010 | 6981 ft | 221 kts | 129° |
| 2026-05-04 23:56 | 30.30112 | -84.01620 | 6981 ft | 222 kts | 129° |
| 2026-05-04 23:57 | 30.29124 | -84.00232 | 6974 ft | 224 kts | 130° |
| 2026-05-04 23:57 | 30.28127 | -83.98852 | 6977 ft | 224 kts | 130° |
| 2026-05-04 23:57 | 30.27125 | -83.97464 | 6976 ft | 225 kts | 130° |
| 2026-05-04 23:57 | 30.26125 | -83.96075 | 6980 ft | 225 kts | 130° |
| 2026-05-04 23:58 | 30.25130 | -83.94685 | 6975 ft | 222 kts | 130° |
| 2026-05-04 23:58 | 30.24149 | -83.93305 | 6971 ft | 223 kts | 130° |
| 2026-05-04 23:58 | 30.23155 | -83.91928 | 6986 ft | 222 kts | 130° |
| 2026-05-04 23:58 | 30.22160 | -83.90552 | 6980 ft | 223 kts | 130° |
| 2026-05-04 23:59 | 30.21171 | -83.89181 | 6971 ft | 222 kts | 130° |
| 2026-05-04 23:59 | 30.20191 | -83.87818 | 6992 ft | 220 kts | 130° |
| 2026-05-04 23:59 | 30.19212 | -83.86457 | 6980 ft | 221 kts | 130° |
| 2026-05-04 23:59 | 30.18228 | -83.85089 | 6980 ft | 221 kts | 130° |
| 2026-05-05 00:00 | 30.17246 | -83.83728 | 6992 ft | 220 kts | 130° |
| 2026-05-05 00:00 | 30.16929 | -83.83288 | 6995 ft | 220 kts | 130° |
| 2026-05-05 00:00 | 30.15273 | -83.81041 | 6988 ft | 221 kts | 131° |
| 2026-05-05 00:00 | 30.14268 | -83.79693 | 6984 ft | 220 kts | 131° |
| 2026-05-05 00:01 | 30.13275 | -83.78347 | 6990 ft | 220 kts | 131° |
| 2026-05-05 00:01 | 30.12285 | -83.76999 | 6991 ft | 220 kts | 131° |
| 2026-05-05 00:01 | 30.11296 | -83.75650 | 6992 ft | 221 kts | 131° |
| 2026-05-05 00:01 | 30.10299 | -83.74298 | 6991 ft | 222 kts | 131° |
| 2026-05-05 00:02 | 30.09296 | -83.72944 | 6990 ft | 221 kts | 131° |
| 2026-05-05 00:02 | 30.08293 | -83.71589 | 6995 ft | 222 kts | 131° |
| 2026-05-05 00:02 | 30.07295 | -83.70259 | 6995 ft | 214 kts | 130° |
| 2026-05-05 00:02 | 30.06335 | -83.68944 | 7003 ft | 214 kts | 131° |
| 2026-05-05 00:03 | 30.05377 | -83.67626 | 6996 ft | 214 kts | 131° |
| 2026-05-05 00:03 | 30.04412 | -83.66310 | 6993 ft | 216 kts | 131° |
| 2026-05-05 00:03 | 30.03431 | -83.64993 | 6997 ft | 216 kts | 131° |
| 2026-05-05 00:03 | 30.02781 | -83.64124 | 6996 ft | 216 kts | 131° |
| 2026-05-05 00:04 | 30.01806 | -83.62814 | 6997 ft | 215 kts | 131° |
| 2026-05-05 00:04 | 30.00822 | -83.61499 | 6995 ft | 217 kts | 131° |
| 2026-05-05 00:04 | 29.99519 | -83.59754 | 6994 ft | 217 kts | 131° |
| 2026-05-05 00:04 | 29.98538 | -83.58430 | 6992 ft | 217 kts | 131° |
| 2026-05-05 00:05 | 29.97877 | -83.57533 | 6996 ft | 217 kts | 131° |
| 2026-05-05 00:05 | 29.96901 | -83.56208 | 6996 ft | 217 kts | 131° |
| 2026-05-05 00:05 | 29.95607 | -83.54453 | 6994 ft | 216 kts | 131° |
| 2026-05-05 00:05 | 29.94951 | -83.53557 | 6994 ft | 216 kts | 131° |
| 2026-05-05 00:06 | 29.93993 | -83.52236 | 6990 ft | 213 kts | 131° |
| 2026-05-05 00:06 | 29.93030 | -83.50963 | 6993 ft | 214 kts | 132° |
| 2026-05-05 00:06 | 29.92044 | -83.49683 | 6991 ft | 213 kts | 131° |
| 2026-05-05 00:06 | 29.91071 | -83.48400 | 6989 ft | 213 kts | 131° |
| 2026-05-05 00:07 | 29.90102 | -83.47098 | 6991 ft | 214 kts | 130° |
| 2026-05-05 00:07 | 29.89139 | -83.45788 | 6987 ft | 214 kts | 130° |
| 2026-05-05 00:07 | 29.88175 | -83.44472 | 6987 ft | 215 kts | 130° |
| 2026-05-05 00:07 | 29.87211 | -83.43158 | 6979 ft | 214 kts | 130° |
| 2026-05-05 00:08 | 29.86243 | -83.41849 | 6979 ft | 215 kts | 131° |
| 2026-05-05 00:08 | 29.85273 | -83.40545 | 6973 ft | 213 kts | 131° |
| 2026-05-05 00:08 | 29.84306 | -83.39252 | 6979 ft | 213 kts | 131° |
| 2026-05-05 00:08 | 29.83339 | -83.37962 | 6978 ft | 212 kts | 131° |
| 2026-05-05 00:09 | 29.82373 | -83.36673 | 6975 ft | 212 kts | 131° |
| 2026-05-05 00:09 | 29.81410 | -83.35383 | 6971 ft | 213 kts | 131° |
| 2026-05-05 00:09 | 29.80447 | -83.34089 | 6980 ft | 213 kts | 131° |
| 2026-05-05 00:09 | 29.79481 | -83.32796 | 6982 ft | 213 kts | 131° |
| 2026-05-05 00:10 | 29.78525 | -83.31517 | 6983 ft | 214 kts | 131° |
| 2026-05-05 00:10 | 29.77555 | -83.30220 | 6984 ft | 213 kts | 131° |
| 2026-05-05 00:10 | 29.76588 | -83.28926 | 6982 ft | 213 kts | 131° |
| 2026-05-05 00:10 | 29.75615 | -83.27623 | 6984 ft | 215 kts | 131° |
| 2026-05-05 00:11 | 29.74641 | -83.26321 | 6986 ft | 214 kts | 131° |
| 2026-05-05 00:11 | 29.73668 | -83.25019 | 6984 ft | 215 kts | 131° |
| 2026-05-05 00:11 | 29.72691 | -83.23713 | 6986 ft | 213 kts | 131° |
| 2026-05-05 00:11 | 29.71721 | -83.22415 | 6984 ft | 214 kts | 131° |
| 2026-05-05 00:12 | 29.70764 | -83.21138 | 6985 ft | 213 kts | 131° |
| 2026-05-05 00:12 | 29.69798 | -83.19846 | 6987 ft | 213 kts | 131° |
| 2026-05-05 00:12 | 29.68823 | -83.18545 | 6986 ft | 215 kts | 131° |
| 2026-05-05 00:12 | 29.67847 | -83.17242 | 6987 ft | 215 kts | 131° |
| 2026-05-05 00:13 | 29.66873 | -83.15942 | 6982 ft | 214 kts | 131° |
| 2026-05-05 00:13 | 29.65898 | -83.14644 | 6981 ft | 215 kts | 131° |
| 2026-05-05 00:13 | 29.64920 | -83.13339 | 6985 ft | 215 kts | 131° |
| 2026-05-05 00:13 | 29.63943 | -83.12044 | 6987 ft | 214 kts | 132° |
| 2026-05-05 00:14 | 29.62952 | -83.10761 | 6987 ft | 214 kts | 131° |
| 2026-05-05 00:14 | 29.61962 | -83.09475 | 6987 ft | 215 kts | 131° |
| 2026-05-05 00:14 | 29.60992 | -83.08190 | 6993 ft | 215 kts | 130° |
| 2026-05-05 00:14 | 29.60020 | -83.06885 | 6987 ft | 215 kts | 130° |
| 2026-05-05 00:15 | 29.59055 | -83.05580 | 6991 ft | 214 kts | 130° |
| 2026-05-05 00:15 | 29.58092 | -83.04276 | 6988 ft | 214 kts | 130° |
| 2026-05-05 00:15 | 29.57202 | -83.02904 | 6988 ft | 214 kts | 121° |
| 2026-05-05 00:15 | 29.56465 | -83.01412 | 6991 ft | 215 kts | 119° |
| 2026-05-05 00:16 | 29.55736 | -82.99922 | 6986 ft | 214 kts | 120° |
| 2026-05-05 00:16 | 29.55006 | -82.98430 | 6985 ft | 214 kts | 120° |
| 2026-05-05 00:16 | 29.54275 | -82.96944 | 6986 ft | 213 kts | 120° |
| 2026-05-05 00:16 | 29.53544 | -82.95459 | 6987 ft | 214 kts | 120° |
| 2026-05-05 00:17 | 29.52806 | -82.93966 | 6991 ft | 214 kts | 120° |
| 2026-05-05 00:17 | 29.52073 | -82.92477 | 6977 ft | 214 kts | 120° |
| 2026-05-05 00:17 | 29.51349 | -82.90999 | 6974 ft | 215 kts | 119° |
| 2026-05-05 00:17 | 29.50617 | -82.89501 | 6983 ft | 215 kts | 119° |
| 2026-05-05 00:18 | 29.49889 | -82.88001 | 6978 ft | 214 kts | 119° |
| 2026-05-05 00:18 | 29.49149 | -82.86520 | 6980 ft | 214 kts | 122° |
| 2026-05-05 00:18 | 29.48356 | -82.85067 | 6981 ft | 214 kts | 122° |
| 2026-05-05 00:18 | 29.47598 | -82.83589 | 6981 ft | 215 kts | 120° |
| 2026-05-05 00:19 | 29.46885 | -82.82092 | 6986 ft | 214 kts | 118° |
| 2026-05-05 00:19 | 29.46194 | -82.80573 | 6984 ft | 214 kts | 117° |
| 2026-05-05 00:19 | 29.45514 | -82.79057 | 6984 ft | 214 kts | 117° |
| 2026-05-05 00:19 | 29.44828 | -82.77546 | 6989 ft | 217 kts | 118° |
| 2026-05-05 00:20 | 29.44130 | -82.75985 | 6988 ft | 221 kts | 120° |
| 2026-05-05 00:20 | 29.43402 | -82.74430 | 6985 ft | 221 kts | 121° |
| 2026-05-05 00:20 | 29.42654 | -82.72913 | 6986 ft | 221 kts | 122° |
| 2026-05-05 00:20 | 29.41878 | -82.71385 | 6987 ft | 222 kts | 122° |
| 2026-05-05 00:21 | 29.41103 | -82.69860 | 6997 ft | 222 kts | 122° |
| 2026-05-05 00:21 | 29.40328 | -82.68325 | 6994 ft | 222 kts | 122° |
| 2026-05-05 00:21 | 29.39550 | -82.66790 | 6986 ft | 223 kts | 122° |
| 2026-05-05 00:21 | 29.38779 | -82.65250 | 6996 ft | 222 kts | 122° |
| 2026-05-05 00:22 | 29.38016 | -82.63703 | 6985 ft | 223 kts | 122° |
| 2026-05-05 00:22 | 29.37251 | -82.62154 | 6984 ft | 223 kts | 122° |
| 2026-05-05 00:22 | 29.36483 | -82.60608 | 6984 ft | 222 kts | 122° |
| 2026-05-05 00:22 | 29.35718 | -82.59067 | 6986 ft | 222 kts | 122° |
| 2026-05-05 00:23 | 29.34961 | -82.57521 | 6980 ft | 222 kts | 121° |
| 2026-05-05 00:23 | 29.34201 | -82.55978 | 6983 ft | 222 kts | 121° |
| 2026-05-05 00:23 | 29.33446 | -82.54432 | 6988 ft | 222 kts | 121° |
| 2026-05-05 00:23 | 29.32691 | -82.52891 | 6981 ft | 221 kts | 121° |
| 2026-05-05 00:24 | 29.31946 | -82.51360 | 6988 ft | 219 kts | 122° |
| 2026-05-05 00:24 | 29.31177 | -82.49853 | 6998 ft | 219 kts | 122° |
| 2026-05-05 00:24 | 29.30411 | -82.48336 | 6991 ft | 220 kts | 122° |
| 2026-05-05 00:24 | 29.29666 | -82.46809 | 6954 ft | 221 kts | 121° |
| 2026-05-05 00:25 | 29.28921 | -82.45258 | 6773 ft | 227 kts | 121° |
| 2026-05-05 00:25 | 29.28143 | -82.43670 | 6639 ft | 229 kts | 121° |
| 2026-05-05 00:25 | 29.27351 | -82.42074 | 6451 ft | 231 kts | 121° |
| 2026-05-05 00:25 | 29.26565 | -82.40473 | 6311 ft | 230 kts | 121° |
| 2026-05-05 00:26 | 29.25773 | -82.38861 | 6181 ft | 236 kts | 121° |
| 2026-05-05 00:26 | 29.24977 | -82.37207 | 6036 ft | 239 kts | 121° |
| 2026-05-05 00:26 | 29.24170 | -82.35531 | 5886 ft | 241 kts | 122° |
| 2026-05-05 00:26 | 29.23352 | -82.33847 | 5726 ft | 243 kts | 122° |
| 2026-05-05 00:27 | 29.22517 | -82.32159 | 5518 ft | 245 kts | 122° |
| 2026-05-05 00:27 | 29.21668 | -82.30462 | 5322 ft | 246 kts | 122° |
| 2026-05-05 00:27 | 29.20820 | -82.28765 | 5145 ft | 244 kts | 123° |
| 2026-05-05 00:27 | 29.19981 | -82.27082 | 4964 ft | 243 kts | 123° |
| 2026-05-05 00:28 | 29.19151 | -82.25408 | 4899 ft | 238 kts | 123° |
| 2026-05-05 00:28 | 29.18308 | -82.23811 | 4939 ft | 231 kts | 124° |
| 2026-05-05 00:28 | 29.17396 | -82.22314 | 4934 ft | 228 kts | 130° |
| 2026-05-05 00:28 | 29.16448 | -82.20877 | 4959 ft | 225 kts | 130° |
| 2026-05-05 00:29 | 29.15504 | -82.19449 | 4947 ft | 224 kts | 130° |
| 2026-05-05 00:29 | 29.14541 | -82.18050 | 4951 ft | 224 kts | 131° |
| 2026-05-05 00:29 | 29.13549 | -82.16661 | 4945 ft | 225 kts | 131° |
| 2026-05-05 00:29 | 29.12558 | -82.15267 | 4952 ft | 225 kts | 131° |
| 2026-05-05 00:30 | 29.11574 | -82.13880 | 4947 ft | 224 kts | 131° |
| 2026-05-05 00:30 | 29.10605 | -82.12511 | 4947 ft | 225 kts | 131° |
| 2026-05-05 00:30 | 29.09631 | -82.11095 | 4951 ft | 226 kts | 131° |
| 2026-05-05 00:30 | 29.08646 | -82.09701 | 4953 ft | 225 kts | 132° |
| 2026-05-05 00:31 | 29.07672 | -82.08306 | 4959 ft | 224 kts | 133° |
| 2026-05-05 00:31 | 29.06687 | -82.06930 | 4953 ft | 223 kts | 133° |
| 2026-05-05 00:31 | 29.05692 | -82.05562 | 4952 ft | 224 kts | 132° |
| 2026-05-05 00:31 | 29.04699 | -82.04186 | 4949 ft | 225 kts | 131° |
| 2026-05-05 00:32 | 29.03716 | -82.02785 | 4944 ft | 226 kts | 131° |
| 2026-05-05 00:32 | 29.02737 | -82.01381 | 4951 ft | 226 kts | 131° |
| 2026-05-05 00:32 | 29.01767 | -81.99966 | 4943 ft | 226 kts | 132° |
| 2026-05-05 00:32 | 29.00781 | -81.98574 | 4949 ft | 225 kts | 133° |
| 2026-05-05 00:33 | 28.99790 | -81.97199 | 4946 ft | 224 kts | 133° |
| 2026-05-05 00:33 | 28.98797 | -81.95825 | 4952 ft | 224 kts | 133° |
| 2026-05-05 00:33 | 28.97803 | -81.94458 | 4944 ft | 224 kts | 132° |
| 2026-05-05 00:33 | 28.96814 | -81.93076 | 4939 ft | 224 kts | 131° |
| 2026-05-05 00:34 | 28.95844 | -81.91691 | 4945 ft | 224 kts | 131° |
| 2026-05-05 00:34 | 28.94854 | -81.90310 | 4936 ft | 224 kts | 131° |
| 2026-05-05 00:34 | 28.93878 | -81.88922 | 4946 ft | 224 kts | 130° |
| 2026-05-05 00:34 | 28.92898 | -81.87510 | 4780 ft | 231 kts | 130° |
| 2026-05-05 00:35 | 28.91894 | -81.86087 | 4582 ft | 234 kts | 131° |
| 2026-05-05 00:35 | 28.90857 | -81.84643 | 4376 ft | 237 kts | 131° |
| 2026-05-05 00:35 | 28.89799 | -81.83187 | 4182 ft | 238 kts | 130° |
| 2026-05-05 00:35 | 28.88749 | -81.81735 | 4002 ft | 236 kts | 130° |
| 2026-05-05 00:36 | 28.87716 | -81.80302 | 3834 ft | 233 kts | 129° |
| 2026-05-05 00:36 | 28.86688 | -81.78865 | 3692 ft | 234 kts | 128° |
| 2026-05-05 00:36 | 28.85670 | -81.77419 | 3539 ft | 233 kts | 128° |
| 2026-05-05 00:36 | 28.84669 | -81.75987 | 3388 ft | 227 kts | 128° |
| 2026-05-05 00:37 | 28.83697 | -81.74581 | 3184 ft | 223 kts | 128° |
| 2026-05-05 00:37 | 28.82720 | -81.73211 | 2961 ft | 221 kts | 128° |
| 2026-05-05 00:37 | 28.81657 | -81.71996 | 2869 ft | 212 kts | 146° |
| 2026-05-05 00:37 | 28.80292 | -81.71500 | 2921 ft | 205 kts | 174° |
| 2026-05-05 00:38 | 28.78867 | -81.71585 | 2961 ft | 206 kts | 182° |
| 2026-05-05 00:38 | 28.77451 | -81.71775 | 2958 ft | 205 kts | 184° |
| 2026-05-05 00:38 | 28.76040 | -81.71991 | 2950 ft | 202 kts | 184° |
| 2026-05-05 00:38 | 28.74655 | -81.72189 | 2959 ft | 204 kts | 179° |
| 2026-05-05 00:39 | 28.73234 | -81.72154 | 2961 ft | 202 kts | 173° |
| 2026-05-05 00:39 | 28.71841 | -81.72076 | 2952 ft | 203 kts | 173° |
| 2026-05-05 00:39 | 28.70416 | -81.71988 | 2935 ft | 207 kts | 173° |
| 2026-05-05 00:39 | 28.68973 | -81.71897 | 2955 ft | 208 kts | 173° |
| 2026-05-05 00:40 | 28.67514 | -81.71808 | 2942 ft | 211 kts | 173° |
| 2026-05-05 00:40 | 28.66056 | -81.71722 | 2933 ft | 209 kts | 173° |
| 2026-05-05 00:40 | 28.64615 | -81.71636 | 2950 ft | 206 kts | 173° |
| 2026-05-05 00:40 | 28.63181 | -81.71558 | 2944 ft | 206 kts | 173° |
| 2026-05-05 00:41 | 28.61768 | -81.71482 | 2947 ft | 205 kts | 173° |
| 2026-05-05 00:41 | 28.60358 | -81.71339 | 2966 ft | 203 kts | 165° |
| 2026-05-05 00:41 | 28.58989 | -81.70975 | 2953 ft | 202 kts | 162° |
| 2026-05-05 00:41 | 28.57634 | -81.70612 | 2915 ft | 193 kts | 165° |
| 2026-05-05 00:42 | 28.56376 | -81.70352 | 2923 ft | 173 kts | 166° |
| 2026-05-05 00:42 | 28.55247 | -81.70134 | 2940 ft | 157 kts | 166° |
| 2026-05-05 00:42 | 28.54235 | -81.69803 | 2961 ft | 153 kts | 150° |
| 2026-05-05 00:42 | 28.53232 | -81.69236 | 2968 ft | 169 kts | 147° |
| 2026-05-05 00:43 | 28.52346 | -81.68349 | 2942 ft | 171 kts | 130° |
| 2026-05-05 00:43 | 28.51555 | -81.67356 | 2927 ft | 166 kts | 130° |
| 2026-05-05 00:43 | 28.50796 | -81.66404 | 2934 ft | 160 kts | 129° |
| 2026-05-05 00:43 | 28.50054 | -81.65470 | 2948 ft | 158 kts | 129° |
| 2026-05-05 00:44 | 28.49305 | -81.64529 | 2950 ft | 163 kts | 129° |
| 2026-05-05 00:44 | 28.48550 | -81.63572 | 2950 ft | 161 kts | 129° |
| 2026-05-05 00:44 | 28.47805 | -81.62625 | 2946 ft | 160 kts | 130° |
| 2026-05-05 00:44 | 28.47082 | -81.61683 | 2866 ft | 154 kts | 128° |
| 2026-05-05 00:45 | 28.46454 | -81.60719 | 2598 ft | 150 kts | 121° |
| 2026-05-05 00:45 | 28.45967 | -81.59701 | 2379 ft | 145 kts | 114° |
| 2026-05-05 00:45 | 28.45580 | -81.58677 | 2329 ft | 141 kts | 111° |
| 2026-05-05 00:45 | 28.45328 | -81.57594 | 2273 ft | 145 kts | 89° |
| 2026-05-05 00:46 | 28.45642 | -81.56540 | 2312 ft | 142 kts | 61° |
| 2026-05-05 00:46 | 28.46168 | -81.55582 | 2333 ft | 146 kts | 61° |
| 2026-05-05 00:46 | 28.46695 | -81.54571 | 2399 ft | 149 kts | 65° |
| 2026-05-05 00:46 | 28.47137 | -81.53515 | 2460 ft | 149 kts | 70° |
| 2026-05-05 00:47 | 28.47492 | -81.52418 | 2472 ft | 144 kts | 75° |
| 2026-05-05 00:47 | 28.47816 | -81.51365 | 2439 ft | 139 kts | 72° |
| 2026-05-05 00:47 | 28.48139 | -81.50348 | 2434 ft | 136 kts | 73° |
| 2026-05-05 00:47 | 28.48459 | -81.49317 | 2409 ft | 141 kts | 71° |
| 2026-05-05 00:48 | 28.48834 | -81.48278 | 2390 ft | 142 kts | 70° |
| 2026-05-05 00:48 | 28.49248 | -81.47278 | 2453 ft | 139 kts | 68° |
| 2026-05-05 00:48 | 28.49529 | -81.46606 | 2382 ft | 146 kts | 68° |
| 2026-05-05 00:48 | 28.49941 | -81.45549 | 2260 ft | 147 kts | 70° |
| 2026-05-05 00:49 | 28.50337 | -81.44479 | 2155 ft | 145 kts | 71° |
| 2026-05-05 00:49 | 28.50708 | -81.43412 | 1988 ft | 146 kts | 72° |
| 2026-05-05 00:49 | 28.51072 | -81.42342 | 1816 ft | 142 kts | 71° |
| 2026-05-05 00:49 | 28.51556 | -81.41038 | 1559 ft | 131 kts | 71° |
| 2026-05-05 00:50 | 28.51792 | -81.40393 | 1404 ft | 131 kts | 70° |
| 2026-05-05 00:50 | 28.52131 | -81.39452 | 1206 ft | 118 kts | 70° |
| 2026-05-05 00:50 | 28.52411 | -81.38648 | 952 ft | 106 kts | 67° |
| 2026-05-05 00:50 | 28.52767 | -81.37902 | 831 ft | 109 kts | 63° |
| 2026-05-05 00:51 | 28.53148 | -81.37172 | 715 ft | 103 kts | 65° |
| 2026-05-05 00:51 | 28.53392 | -81.36469 | 596 ft | 94 kts | 73° |
| 2026-05-05 00:51 | 28.53618 | -81.35770 | 468 ft | 94 kts | 71° |
| 2026-05-05 00:51 | 28.53855 | -81.35093 | 353 ft | 93 kts | 72° |
| 2026-05-05 00:52 | 28.54092 | -81.34447 | 238 ft | 80 kts | 69° |
| 2026-05-05 00:52 | 28.54313 | -81.33858 | 111 ft | 73 kts | 72° |
| 2026-05-05 00:52 | 28.54437 | -81.33516 | 111 ft | 28 kts | 64° |
| 2026-05-05 00:52 | 28.54522 | -81.33520 | 111 ft | 16 kts | 314° |